createdAt,value
2019-02-28T00:00:51.256Z,10.59
2019-02-28T00:05:46.893Z,10.40
2019-02-28T00:10:42.696Z,10.35
2019-02-28T00:15:38.375Z,10.33
2019-02-28T00:20:36.627Z,10.23
2019-02-28T00:25:31.641Z,10.34
2019-02-28T00:30:28.136Z,10.12
2019-02-28T00:35:23.665Z,10.09
2019-02-28T00:40:19.097Z,10.12
2019-02-28T00:45:14.919Z,10.19
2019-02-28T00:50:10.908Z," 9.99"
2019-02-28T00:55:07.593Z," 9.97"
2019-02-28T01:00:05.476Z," 9.99"
2019-02-28T01:05:01.424Z," 9.94"
2019-02-28T01:10:01.521Z," 9.91"
2019-02-28T01:14:58.253Z," 9.87"
2019-02-28T01:19:54.233Z," 9.79"
2019-02-28T01:24:50.850Z," 9.65"
2019-02-28T01:29:47.245Z," 9.69"
2019-02-28T01:34:43.439Z," 9.72"
2019-02-28T01:39:39.727Z," 9.61"
2019-02-28T01:44:36.559Z," 9.62"
2019-02-28T01:49:32.439Z," 9.55"
2019-02-28T01:54:28.477Z," 9.47"
2019-02-28T01:59:24.029Z," 9.37"
2019-02-28T02:04:19.605Z," 9.36"
2019-02-28T02:09:16.321Z," 9.26"
2019-02-28T02:14:12.768Z," 9.14"
2019-02-28T02:19:07.783Z," 9.14"
2019-02-28T02:24:03.546Z," 9.00"
2019-02-28T02:29:01.194Z," 9.13"
2019-02-28T02:33:58.154Z," 9.03"
2019-02-28T02:38:54.794Z," 8.92"
2019-02-28T02:43:54.817Z," 8.82"
2019-02-28T02:48:49.479Z," 8.76"
2019-02-28T02:53:46.133Z," 8.71"
2019-02-28T02:58:42.428Z," 8.78"
2019-02-28T03:03:42.890Z," 8.63"
2019-02-28T03:08:37.519Z," 8.61"
2019-02-28T03:13:33.010Z," 8.44"
2019-02-28T03:18:28.819Z," 8.34"
2019-02-28T03:23:25.402Z," 8.48"
2019-02-28T03:28:20.308Z," 8.34"
2019-02-28T03:33:25.216Z," 8.37"
2019-02-28T03:38:15.692Z," 8.34"
2019-02-28T03:43:11.158Z," 8.27"
2019-02-28T03:48:07.496Z," 8.24"
2019-02-28T03:53:04.312Z," 8.34"
2019-02-28T03:58:04.325Z," 8.26"
2019-02-28T04:02:59.420Z," 8.20"
2019-02-28T04:07:55.184Z," 8.19"
2019-02-28T04:12:50.865Z," 8.12"
2019-02-28T04:17:46.667Z," 8.16"
2019-02-28T04:22:43.196Z," 8.19"
2019-02-28T04:27:40.478Z," 8.12"
2019-02-28T04:32:36.516Z," 8.03"
2019-02-28T04:37:32.158Z," 8.08"
2019-02-28T04:42:27.817Z," 7.94"
2019-02-28T04:47:23.542Z," 7.93"
2019-02-28T04:52:19.118Z," 7.79"
2019-02-28T04:57:17.296Z," 7.79"
2019-02-28T05:02:14.210Z," 7.75"
2019-02-28T05:07:09.807Z," 7.63"
2019-02-28T05:12:06.008Z," 7.69"
2019-02-28T05:17:02.171Z," 7.76"
2019-02-28T05:21:58.943Z," 7.67"
2019-02-28T05:26:57.317Z," 7.57"
2019-02-28T05:31:53.772Z," 7.57"
2019-02-28T05:36:49.221Z," 7.61"
2019-02-28T05:41:48.955Z," 7.50"
2019-02-28T05:46:45.070Z," 7.36"
2019-02-28T05:51:40.951Z," 7.24"
2019-02-28T05:56:36.463Z," 7.29"
2019-02-28T06:01:33.763Z," 7.35"
2019-02-28T06:06:29.031Z," 7.17"
2019-02-28T06:11:25.684Z," 7.18"
2019-02-28T06:16:21.010Z," 7.17"
2019-02-28T06:21:16.684Z," 7.14"
2019-02-28T06:26:12.447Z," 7.00"
2019-02-28T06:31:07.998Z," 7.11"
2019-02-28T06:36:04.593Z," 7.11"
2019-02-28T06:41:00.232Z," 7.13"
2019-02-28T06:45:57.006Z," 7.14"
2019-02-28T06:50:53.181Z," 7.13"
2019-02-28T06:55:49.053Z," 7.07"
2019-02-28T07:00:47.329Z," 7.10"
2019-02-28T07:05:42.530Z," 7.21"
2019-02-28T07:10:38.451Z," 7.17"
2019-02-28T07:15:35.240Z," 7.29"
2019-02-28T07:20:30.646Z," 7.42"
2019-02-28T07:25:26.436Z," 7.35"
2019-02-28T07:30:22.405Z," 7.45"
2019-02-28T07:35:18.208Z," 7.60"
2019-02-28T07:40:16.164Z," 7.72"
2019-02-28T07:45:13.156Z," 7.77"
2019-02-28T07:50:10.772Z," 7.90"
2019-02-28T07:55:06.414Z," 7.98"
2019-02-28T08:00:03.151Z," 8.20"
2019-02-28T08:04:58.781Z," 8.16"
2019-02-28T08:09:54.565Z," 8.18"
2019-02-28T08:14:50.362Z," 8.34"
2019-02-28T08:19:47.448Z," 8.60"
2019-02-28T08:24:43.510Z," 8.76"
2019-02-28T08:29:44.791Z," 8.71"
2019-02-28T08:34:38.396Z," 8.84"
2019-02-28T08:39:35.223Z," 8.88"
2019-02-28T08:44:31.983Z," 8.91"
2019-02-28T08:49:27.558Z," 9.16"
2019-02-28T08:54:27.241Z," 9.21"
2019-02-28T08:59:22.901Z," 9.61"
2019-02-28T09:04:18.805Z," 9.79"
2019-02-28T09:09:15.678Z," 9.95"
2019-02-28T09:14:11.089Z," 9.97"
2019-02-28T09:19:06.611Z," 9.84"
2019-02-28T09:24:02.503Z," 9.97"
2019-02-28T09:28:58.545Z,10.07
2019-02-28T09:33:55.407Z,10.16
2019-02-28T09:38:56.992Z,10.09
2019-02-28T09:43:52.811Z,10.30
2019-02-28T09:48:49.502Z,10.41
2019-02-28T09:53:47.291Z,10.57
2019-02-28T09:58:44.798Z,10.64
2019-02-28T10:03:41.670Z,10.56
2019-02-28T10:08:38.023Z,10.61
2019-02-28T10:13:33.951Z,11.08
2019-02-28T10:18:31.432Z,11.47
2019-02-28T10:23:27.582Z,12.20
2019-02-28T10:28:23.495Z,12.24
2019-02-28T10:33:19.681Z,12.67
2019-02-28T10:38:16.058Z,12.90
2019-02-28T10:43:15.513Z,13.05
2019-02-28T10:48:11.577Z,13.05
2019-02-28T10:53:07.632Z,13.28
2019-02-28T10:58:03.655Z,13.23
2019-02-28T11:03:00.860Z,13.27
2019-02-28T11:07:56.587Z,13.19
2019-02-28T11:12:54.269Z,13.18
2019-02-28T11:17:51.587Z,13.37
2019-02-28T11:22:47.351Z,13.27
2019-02-28T11:27:44.667Z,13.54
2019-02-28T11:32:40.645Z,13.81
2019-02-28T11:37:36.859Z,13.97
2019-02-28T11:42:33.025Z,13.92
2019-02-28T11:47:28.848Z,14.03
2019-02-28T11:52:27.400Z,14.11
2019-02-28T11:57:22.809Z,14.28
2019-02-28T12:02:20.130Z,14.15
2019-02-28T12:07:15.797Z,13.95
2019-02-28T12:12:11.257Z,13.92
2019-02-28T12:17:06.953Z,13.79
2019-02-28T12:22:02.610Z,13.90
2019-02-28T12:26:58.347Z,13.70
2019-02-28T12:31:53.864Z,13.38
2019-02-28T12:36:50.223Z,13.42
2019-02-28T12:41:46.804Z,13.62
2019-02-28T12:46:43.430Z,13.86
2019-02-28T12:51:39.636Z,13.96
2019-02-28T12:56:35.821Z,14.12
2019-02-28T13:01:33.086Z,14.17
2019-02-28T13:06:29.763Z,14.18
2019-02-28T13:11:25.952Z,14.17
2019-02-28T13:16:21.626Z,14.08
2019-02-28T13:21:17.276Z,14.00
2019-02-28T13:26:13.515Z,14.05
2019-02-28T13:31:09.426Z,14.04
2019-02-28T13:36:05.373Z,14.20
2019-02-28T13:41:01.170Z,14.48
2019-02-28T13:45:57.341Z,14.55
2019-02-28T13:50:53.115Z,14.65
2019-02-28T13:55:52.709Z,14.50
2019-02-28T14:00:47.891Z,14.50
2019-02-28T14:05:43.314Z,14.47
2019-02-28T14:10:39.050Z,14.37
2019-02-28T14:15:34.782Z,14.50
2019-02-28T14:20:31.644Z,14.41
2019-02-28T14:25:28.158Z,14.48
2019-02-28T14:30:24.656Z,14.55
2019-02-28T14:35:22.853Z,14.54
2019-02-28T14:40:18.812Z,14.60
2019-02-28T14:45:14.708Z,14.72
2019-02-28T14:50:10.255Z,14.59
2019-02-28T14:55:05.573Z,14.65
2019-02-28T15:00:06.289Z,14.48
2019-02-28T15:05:01.426Z,14.40
2019-02-28T15:09:58.865Z,14.29
2019-02-28T15:14:56.165Z,14.07
2019-02-28T15:19:51.717Z,13.92
2019-02-28T15:24:47.643Z,13.89
2019-02-28T15:29:43.569Z,13.78
2019-02-28T15:34:41.131Z,13.83
2019-02-28T15:39:36.672Z,13.81
2019-02-28T15:44:32.438Z,13.79
2019-02-28T15:49:28.276Z,13.78
2019-02-28T15:54:25.354Z,13.67
2019-02-28T15:59:20.887Z,13.52
2019-02-28T16:04:16.590Z,13.56
2019-02-28T16:09:12.600Z,13.57
2019-02-28T16:14:14.282Z,13.20
2019-02-28T16:19:06.775Z,12.95
2019-02-28T16:24:05.143Z,12.78
2019-02-28T16:29:00.512Z,12.73
2019-02-28T16:34:07.669Z,12.55
2019-02-28T16:38:56.543Z,12.50
2019-02-28T16:43:52.265Z,12.54
2019-02-28T16:48:50.077Z,12.42
2019-02-28T16:53:47.998Z,12.40
2019-02-28T16:58:44.717Z,12.43
2019-02-28T17:03:41.738Z,12.40
2019-02-28T17:08:37.741Z,12.40
2019-02-28T17:13:35.574Z,12.39
2019-02-28T17:18:33.808Z,12.32
2019-02-28T17:23:33.790Z,12.15
2019-02-28T17:28:30.442Z,12.18
2019-02-28T17:33:25.684Z,12.12
2019-02-28T17:38:21.329Z,12.06
2019-02-28T17:43:17.254Z,11.97
2019-02-28T17:48:13.595Z,11.91
2019-02-28T17:53:10.195Z,12.02
2019-02-28T17:58:07.539Z,11.99
2019-02-28T18:03:04.079Z,11.88
2019-02-28T18:08:01.413Z,11.84
2019-02-28T18:12:57.534Z,11.81
2019-02-28T18:17:53.816Z,11.78
2019-02-28T18:22:51.954Z,11.77
2019-02-28T18:27:47.836Z,11.81
2019-02-28T18:32:43.422Z,11.75
2019-02-28T18:37:39.055Z,11.75
2019-02-28T18:42:35.730Z,11.70
2019-02-28T18:47:31.493Z,11.62
2019-02-28T18:52:27.312Z,11.60
2019-02-28T18:57:22.971Z,11.55
2019-02-28T19:02:18.911Z,11.52
2019-02-28T19:07:14.709Z,11.59
2019-02-28T19:12:10.485Z,11.57
2019-02-28T19:17:06.469Z,11.50
2019-02-28T19:22:02.256Z,11.63
2019-02-28T19:26:57.955Z,11.62
2019-02-28T19:31:53.966Z,11.54
2019-02-28T19:36:50.371Z,11.51
2019-02-28T19:41:45.842Z,11.57
2019-02-28T19:46:42.717Z,11.57
2019-02-28T19:51:40.385Z,11.55
2019-02-28T19:56:35.588Z,11.59
2019-02-28T20:01:31.412Z,11.55
2019-02-28T20:06:27.042Z,11.51
2019-02-28T20:11:22.784Z,11.59
2019-02-28T20:16:18.297Z,11.52
2019-02-28T20:21:15.445Z,11.52
2019-02-28T20:26:12.009Z,11.52
2019-02-28T20:31:08.049Z,11.37
2019-02-28T20:36:04.631Z,11.43
2019-02-28T20:41:00.126Z,11.44
2019-02-28T20:45:55.833Z,11.30
2019-02-28T20:50:51.546Z,11.44
2019-02-28T20:55:48.210Z,11.47
2019-02-28T21:00:43.960Z,11.45
2019-02-28T21:05:40.978Z,11.54
2019-02-28T21:10:37.317Z,11.51
2019-02-28T21:15:33.714Z,11.57
2019-02-28T21:20:29.340Z,11.52
2019-02-28T21:25:26.060Z,11.51
2019-02-28T21:30:21.455Z,11.55
2019-02-28T21:35:17.047Z,11.51
2019-02-28T21:40:12.972Z,11.44
2019-02-28T21:45:08.973Z,11.48
2019-02-28T21:50:05.698Z,11.37
2019-02-28T21:55:01.522Z,11.52
2019-02-28T21:59:57.697Z,11.44
2019-02-28T22:04:54.407Z,11.41
2019-02-28T22:09:50.996Z,11.36
2019-02-28T22:14:47.423Z,11.36
2019-02-28T22:19:42.839Z,11.25
2019-02-28T22:24:39.498Z,11.35
2019-02-28T22:29:35.303Z,11.19
2019-02-28T22:34:31.053Z,11.27
2019-02-28T22:39:26.619Z,11.25
2019-02-28T22:44:22.799Z,11.18
2019-02-28T22:49:18.597Z,11.19
2019-02-28T22:54:14.611Z,11.22
2019-02-28T22:59:11.603Z,11.23
2019-02-28T23:04:07.149Z,11.14
2019-02-28T23:09:03.877Z,11.17
2019-02-28T23:14:00.413Z,11.17
2019-02-28T23:18:55.936Z,11.23
2019-02-28T23:23:51.620Z,11.18
2019-02-28T23:28:47.333Z,11.15
2019-02-28T23:33:44.010Z,11.29
2019-02-28T23:38:39.428Z,11.08
2019-02-28T23:43:35.078Z,11.11
2019-02-28T23:48:31.585Z,11.04
2019-02-28T23:53:27.365Z,11.04
2019-02-28T23:58:23.516Z,10.97
